Wednesday, April 25, 2018, 1:09 AM EDT
Back to Local

KDUJ, Du Bois-jefferson County

Location: Reynoldsville, PA, United States Lat: 41.183
Local Time: 1:09 AM EDT ( 5:09 GMT) Lon: -78.883
Time Zone: US/Eastern Elev: 1820 ft

Show me the last for .
Show Decoded

2018-04-25 00:53 METAR KDUJ 250453Z AUTO 11011KT 10SM OVC014 09/08 A2995 RMK AO2 SLP146 T00890078
                 401170072 TSNO =
2018-04-25 00:48 METAR KDUJ 250448Z AUTO 11010KT 10SM OVC014 09/08 A2995 RMK AO2 TSNO =
2018-04-25 00:14 METAR KDUJ 250414Z AUTO 11011G18KT 10SM BKN016 OVC060 09/08 A2997 RMK AO2
                 T00890078 TSNO =
2018-04-24 23:53 METAR KDUJ 250353Z AUTO 11009KT 10SM FEW013 OVC060 09/08 A2997 RMK AO2 SLP154
                 P0001 T00890078 TSNO =
2018-04-24 23:35 METAR KDUJ 250335Z AUTO 11010KT 9SM SCT013 OVC060 09/08 A2999 RMK AO2 P0001
                 T00890078 TSNO =
2018-04-24 22:53 METAR KDUJ 250253Z AUTO 12010KT 10SM BKN013 BKN021 OVC065 09/08 A3001 RMK AO2
                 RAE37 SLP164 P0002 60008 T00890083 58009 TSNO =
2018-04-24 22:35 METAR KDUJ 250235Z AUTO 12013KT 6SM -RA BR BKN012 BKN017 OVC060 09/08 A3001 RMK
                 AO2 P0002 T00890083 TSNO =
2018-04-24 22:01 METAR KDUJ 250201Z AUTO 12014G19KT 5SM -RA BR FEW010 BKN015 OVC055 09/08 A3003
                 RMK AO2 P0001 T00890083 TSNO =
2018-04-24 21:53 METAR KDUJ 250153Z AUTO 12011G19KT 5SM -RA BR BKN014 OVC055 09/08 A3003 RMK AO2
                 SLP171 P0003 T00890083 TSNO =
2018-04-24 21:36 METAR KDUJ 250136Z AUTO 11011KT 5SM -RA BR SCT014 BKN028 OVC055 09/08 A3003 RMK
                 AO2 P0002 T00890083 TSNO =
2018-04-24 20:53 METAR KDUJ 250053Z AUTO 12011KT 6SM -RA BR FEW015 FEW028 OVC060 09/08 A3003 RMK
                 AO2 RAB10 SLP175 P0003 T00890083 TSNO =
2018-04-24 19:53 METAR KDUJ 242353Z AUTO 11010KT 5SM BR BKN060 OVC080 09/08 A3003 RMK AO2
                 RAB2258E46 SLP174 P0002 60007 T00940083 10106 20094 58011 TSNO =
2018-04-24 18:53 METAR KDUJ 242253Z AUTO 11009KT 5SM BR BKN070 OVC080 10/08 A3005 RMK AO2 SLP178
                 P0001 T01000083 TSNO =
2018-04-24 17:53 METAR KDUJ 242153Z AUTO 11007KT 4SM BR FEW014 BKN060 OVC075 10/09 A3006 RMK AO2
                 RAE05 SLP184 P0001 T01000089 TSNO =
2018-04-24 16:53 METAR KDUJ 242053Z AUTO 10008KT 4SM -RA BR FEW014 BKN055 OVC070 10/09 A3007 RMK
                 AO2 RAB03E05B26 SLP186 P0002 60003 T01000089 58023 TSNO =
2018-04-24 15:53 METAR KDUJ 241953Z AUTO 12011G20KT 5SM BR FEW017 BKN060 OVC075 10/08 A3009 RMK
                 AO2 RAB30E53 SLP193 P0001 T01000083 TSNO =
2018-04-24 14:53 METAR KDUJ 241853Z AUTO 12013KT 5SM BR FEW019 BKN055 OVC065 11/08 A3012 RMK AO2
                 SLP202 T01060083 TSNO =
2018-04-24 14:35 METAR KDUJ 241835Z AUTO 12014G22KT 7SM FEW015 SCT023 OVC060 10/08 A3012 RMK AO2
                 T01000078 TSNO =
2018-04-24 13:53 METAR KDUJ 241753Z AUTO 12011KT 5SM BR BKN017 BKN022 OVC060 09/08 A3014 RMK AO2
                 RAE17 SLP210 P0001 60005 T00940078 10111 20083 58009 TSNO =
2018-04-24 13:48 METAR KDUJ 241748Z AUTO 12009G18KT 5SM BR FEW015 BKN020 OVC060 09/08 A3015 RMK
                 AO2 RAE17 P0001 TSNO =
2018-04-24 13:15 METAR KDUJ 241715Z AUTO 12013G20KT 6SM -RA BR FEW026 BKN060 OVC070 09/08 A3016
                 RMK AO2 P0001 T00940078 TSNO =
2018-04-24 12:53 METAR KDUJ 241653Z AUTO 13010G17KT 5SM -RA BR BKN025 BKN049 OVC060 09/07 A3017
                 RMK AO2 RAB01 SLP218 P0003 T00890067 TSNO =
2018-04-24 12:48 METAR KDUJ 241648Z AUTO 12012G17KT 5SM -RA BR BKN025 OVC060 09/07 A3017 RMK AO2
                 RAB01 P0002 TSNO =
2018-04-24 12:32 METAR KDUJ 241632Z AUTO 12009KT 6SM -RA SCT025 OVC060 09/07 A3017 RMK AO2 RAB01
                 P0002 T00940067 TSNO =
2018-04-24 11:53 METAR KDUJ 241553Z AUTO 13010G16KT 5SM HZ BKN029 BKN033 OVC060 09/06 A3019 RMK
                 AO2 RAB31E51 SLP224 P0001 T00940061 TSNO =
2018-04-24 10:53 METAR KDUJ 241453Z AUTO 14011G18KT 10SM BKN070 OVC085 11/04 A3020 RMK AO2 SLP227
                 T01060044 56009 TSNO =
2018-04-24 09:53 METAR KDUJ 241353Z AUTO 14014G21KT 10SM FEW100 11/03 A3020 RMK AO2 SLP229
                 T01060028 TSNO =
2018-04-24 08:53 METAR KDUJ 241253Z AUTO 12010KT 10SM FEW030 OVC090 09/02 A3022 RMK AO2 SLP234
                 T00940017 TSNO =
2018-04-24 07:53 METAR KDUJ 241153Z AUTO 11007KT 10SM BKN090 BKN100 08/02 A3023 RMK AO2 SLP236
                 60001 70001 T00830022 10106 20072 58002 TSNO =
2018-04-24 06:53 METAR KDUJ 241053Z AUTO 10008KT 10SM OVC085 07/04 A3023 RMK AO2 SLP237 T00720039
                 TSNO =
2018-04-24 05:53 METAR KDUJ 240953Z AUTO 13012G17KT 10SM OVC060 08/03 A3024 RMK AO2 SLP239 P0001
                 T00780033 TSNO =
2018-04-24 04:53 METAR KDUJ 240853Z AUTO 16004KT 10SM OVC060 09/03 A3023 RMK AO2 RAB13E24 SLP235
                 P0000 60000 T00940033 55004 TSNO =
2018-04-24 03:53 METAR KDUJ 240753Z AUTO 13010KT 10SM FEW055 BKN120 11/03 A3023 RMK AO2 SLP233
                 T01060033 TSNO =
2018-04-24 02:53 METAR KDUJ 240653Z AUTO 13010KT 10SM CLR 10/04 A3023 RMK AO2 SLP235 T01000039
                 TSNO =
2018-04-24 01:53 METAR KDUJ 240553Z AUTO 13007KT 10SM CLR 10/04 A3024 RMK AO2 SLP239 T01000044
                 10156 20100 58005 TSNO =

Support USWX by starting your Amazon purchase here.